sensor_id;sensor_type;location;lat;lon;timestamp;P1;durP1;ratioP1;P2;durP2;ratioP2
57903;SDS011;43720;47.462;19.030;2022-11-21T05:00:24;4.07;;;0.95;;
57903;SDS011;43720;47.462;19.030;2022-11-21T05:03:27;4.62;;;3.28;;
57903;SDS011;43720;47.462;19.030;2022-11-21T05:06:29;2.47;;;0.85;;
57903;SDS011;43720;47.462;19.030;2022-11-21T05:09:31;2.72;;;2.25;;
57903;SDS011;43720;47.462;19.030;2022-11-21T05:12:33;3.70;;;1.60;;
57903;SDS011;43720;47.462;19.030;2022-11-21T05:15:55;2.25;;;2.05;;
57903;SDS011;43720;47.462;19.030;2022-11-21T05:18:57;5.10;;;1.95;;
57903;SDS011;43720;47.462;19.030;2022-11-21T05:22:00;3.12;;;2.50;;
57903;SDS011;43720;47.462;19.030;2022-11-21T05:25:02;2.17;;;2.08;;
57903;SDS011;43720;47.462;19.030;2022-11-21T05:28:06;1.33;;;1.23;;
57903;SDS011;43720;47.462;19.030;2022-11-21T05:31:08;3.00;;;1.80;;
57903;SDS011;43720;47.462;19.030;2022-11-21T05:34:10;3.80;;;1.83;;
57903;SDS011;43720;47.462;19.030;2022-11-21T05:37:12;4.70;;;3.12;;
57903;SDS011;43720;47.462;19.030;2022-11-21T05:40:15;3.45;;;2.53;;
57903;SDS011;43720;47.462;19.030;2022-11-21T05:43:17;1.87;;;1.77;;
57903;SDS011;43720;47.462;19.030;2022-11-21T05:46:38;3.60;;;3.30;;
57903;SDS011;43720;47.462;19.030;2022-11-21T05:49:40;6.00;;;2.75;;
57903;SDS011;43720;47.462;19.030;2022-11-21T05:52:42;2.67;;;2.47;;
57903;SDS011;43720;47.462;19.030;2022-11-21T05:55:44;2.53;;;2.30;;
57903;SDS011;43720;47.462;19.030;2022-11-21T05:58:46;2.55;;;2.35;;
57903;SDS011;43720;47.462;19.030;2022-11-21T06:01:48;2.80;;;2.53;;
57903;SDS011;43720;47.462;19.030;2022-11-21T06:05:09;2.67;;;2.47;;
57903;SDS011;43720;47.462;19.030;2022-11-21T06:08:11;8.07;;;4.70;;
57903;SDS011;43720;47.462;19.030;2022-11-21T06:11:14;4.10;;;2.28;;
57903;SDS011;43720;47.462;19.030;2022-11-21T06:14:17;2.78;;;2.10;;
57903;SDS011;43720;47.462;19.030;2022-11-21T06:17:19;5.82;;;2.83;;
57903;SDS011;43720;47.462;19.030;2022-11-21T06:20:21;9.13;;;3.12;;
57903;SDS011;43720;47.462;19.030;2022-11-21T06:23:24;1.30;;;1.27;;
57903;SDS011;43720;47.462;19.030;2022-11-21T06:26:26;7.00;;;1.95;;
57903;SDS011;43720;47.462;19.030;2022-11-21T06:29:29;7.60;;;2.40;;
57903;SDS011;43720;47.462;19.030;2022-11-21T06:32:34;3.17;;;2.28;;
57903;SDS011;43720;47.462;19.030;2022-11-21T06:35:37;8.82;;;2.35;;
57903;SDS011;43720;47.462;19.030;2022-11-21T06:38:40;5.07;;;4.25;;
57903;SDS011;43720;47.462;19.030;2022-11-21T06:41:42;8.27;;;3.83;;
57903;SDS011;43720;47.462;19.030;2022-11-21T06:44:51;4.82;;;4.35;;
57903;SDS011;43720;47.462;19.030;2022-11-21T06:47:54;4.20;;;3.42;;
57903;SDS011;43720;47.462;19.030;2022-11-21T06:50:56;4.07;;;3.65;;
57903;SDS011;43720;47.462;19.030;2022-11-21T06:54:01;2.65;;;2.45;;
57903;SDS011;43720;47.462;19.030;2022-11-21T06:57:03;2.90;;;2.58;;
57903;SDS011;43720;47.462;19.030;2022-11-21T07:00:05;4.43;;;3.83;;
57903;SDS011;43720;47.462;19.030;2022-11-21T07:03:08;6.12;;;5.15;;
57903;SDS011;43720;47.462;19.030;2022-11-21T07:06:10;4.28;;;3.72;;
57903;SDS011;43720;47.462;19.030;2022-11-21T07:09:12;4.87;;;3.15;;
57903;SDS011;43720;47.462;19.030;2022-11-21T07:12:35;7.05;;;3.33;;
57903;SDS011;43720;47.462;19.030;2022-11-21T07:15:59;3.20;;;3.00;;
57903;SDS011;43720;47.462;19.030;2022-11-21T07:19:06;5.28;;;4.75;;
57903;SDS011;43720;47.462;19.030;2022-11-21T07:22:08;2.15;;;1.95;;
57903;SDS011;43720;47.462;19.030;2022-11-21T07:25:11;2.17;;;2.05;;
57903;SDS011;43720;47.462;19.030;2022-11-21T07:28:13;10.73;;;5.10;;
57903;SDS011;43720;47.462;19.030;2022-11-21T07:31:15;5.45;;;4.93;;
57903;SDS011;43720;47.462;19.030;2022-11-21T07:34:18;2.50;;;2.37;;
57903;SDS011;43720;47.462;19.030;2022-11-21T07:37:20;4.37;;;3.67;;
57903;SDS011;43720;47.462;19.030;2022-11-21T07:40:22;5.60;;;3.10;;
57903;SDS011;43720;47.462;19.030;2022-11-21T07:43:25;2.95;;;2.55;;
57903;SDS011;43720;47.462;19.030;2022-11-21T07:46:27;2.95;;;2.17;;
57903;SDS011;43720;47.462;19.030;2022-11-21T07:49:29;8.07;;;2.70;;
57903;SDS011;43720;47.462;19.030;2022-11-21T07:52:32;2.53;;;2.33;;
57903;SDS011;43720;47.462;19.030;2022-11-21T07:55:34;3.25;;;2.72;;
57903;SDS011;43720;47.462;19.030;2022-11-21T07:58:41;3.15;;;2.95;;
57903;SDS011;43720;47.462;19.030;2022-11-21T08:01:43;1.92;;;1.70;;
57903;SDS011;43720;47.462;19.030;2022-11-21T08:04:47;5.50;;;2.25;;
57903;SDS011;43720;47.462;19.030;2022-11-21T08:07:49;8.80;;;5.00;;
57903;SDS011;43720;47.462;19.030;2022-11-21T08:10:51;3.50;;;3.10;;
57903;SDS011;43720;47.462;19.030;2022-11-21T08:13:53;3.58;;;2.65;;
57903;SDS011;43720;47.462;19.030;2022-11-21T08:16:56;5.53;;;3.55;;
57903;SDS011;43720;47.462;19.030;2022-11-21T08:19:58;7.40;;;4.60;;
57903;SDS011;43720;47.462;19.030;2022-11-21T08:23:02;4.12;;;2.28;;
57903;SDS011;43720;47.462;19.030;2022-11-21T08:26:07;2.72;;;2.45;;
57903;SDS011;43720;47.462;19.030;2022-11-21T08:29:10;7.40;;;4.37;;
57903;SDS011;43720;47.462;19.030;2022-11-21T08:32:13;6.78;;;2.50;;
57903;SDS011;43720;47.462;19.030;2022-11-21T08:35:16;3.80;;;3.25;;
57903;SDS011;43720;47.462;19.030;2022-11-21T08:38:18;2.58;;;2.35;;
57903;SDS011;43720;47.462;19.030;2022-11-21T08:41:20;1.90;;;1.62;;
57903;SDS011;43720;47.462;19.030;2022-11-21T08:44:55;3.00;;;2.80;;
57903;SDS011;43720;47.462;19.030;2022-11-21T08:47:58;6.03;;;1.50;;
57903;SDS011;43720;47.462;19.030;2022-11-21T08:51:00;3.92;;;2.75;;
57903;SDS011;43720;47.462;19.030;2022-11-21T08:54:02;5.12;;;1.80;;
57903;SDS011;43720;47.462;19.030;2022-11-21T08:57:04;5.55;;;2.17;;
57903;SDS011;43720;47.462;19.030;2022-11-21T09:00:07;2.87;;;2.67;;
57903;SDS011;43720;47.462;19.030;2022-11-21T09:03:13;3.28;;;2.08;;
57903;SDS011;43720;47.462;19.030;2022-11-21T09:06:22;3.37;;;3.17;;
57903;SDS011;43720;47.462;19.030;2022-11-21T09:09:24;5.25;;;1.87;;
57903;SDS011;43720;47.462;19.030;2022-11-21T09:12:27;6.22;;;4.40;;
57903;SDS011;43720;47.462;19.030;2022-11-21T09:15:30;13.32;;;6.45;;
57903;SDS011;43720;47.462;19.030;2022-11-21T09:18:51;9.52;;;6.32;;
57903;SDS011;43720;47.462;19.030;2022-11-21T09:21:54;7.57;;;6.87;;
57903;SDS011;43720;47.462;19.030;2022-11-21T09:24:57;9.68;;;5.90;;
57903;SDS011;43720;47.462;19.030;2022-11-21T09:27:59;10.65;;;6.30;;
57903;SDS011;43720;47.462;19.030;2022-11-21T09:31:04;4.87;;;2.75;;
57903;SDS011;43720;47.462;19.030;2022-11-21T09:34:06;2.60;;;2.45;;
57903;SDS011;43720;47.462;19.030;2022-11-21T09:37:09;3.22;;;2.35;;
57903;SDS011;43720;47.462;19.030;2022-11-21T09:40:14;7.55;;;3.03;;
57903;SDS011;43720;47.462;19.030;2022-11-21T09:46:27;19.35;;;4.20;;
57903;SDS011;43720;47.462;19.030;2022-11-21T09:49:39;4.37;;;2.90;;
57903;SDS011;43720;47.462;19.030;2022-11-21T09:56:08;8.60;;;3.53;;
57903;SDS011;43720;47.462;19.030;2022-11-21T09:59:34;15.77;;;5.65;;
57903;SDS011;43720;47.462;19.030;2022-11-21T10:02:38;8.85;;;5.87;;
57903;SDS011;43720;47.462;19.030;2022-11-21T10:05:43;6.15;;;4.45;;
57903;SDS011;43720;47.462;19.030;2022-11-21T10:11:56;6.37;;;4.18;;
57903;SDS011;43720;47.462;19.030;2022-11-21T10:32:00;5.20;;;3.67;;
57903;SDS011;43720;47.462;19.030;2022-11-21T10:35:12;7.70;;;4.78;;
57903;SDS011;43720;47.462;19.030;2022-11-21T10:41:33;5.70;;;4.80;;
57903;SDS011;43720;47.462;19.030;2022-11-21T10:44:41;6.78;;;4.37;;
57903;SDS011;43720;47.462;19.030;2022-11-21T10:48:02;9.70;;;6.60;;
57903;SDS011;43720;47.462;19.030;2022-11-21T10:54:14;5.82;;;4.85;;
57903;SDS011;43720;47.462;19.030;2022-11-21T11:00:55;8.48;;;6.45;;
57903;SDS011;43720;47.462;19.030;2022-11-21T11:07:30;6.55;;;3.50;;
57903;SDS011;43720;47.462;19.030;2022-11-21T11:13:54;6.35;;;4.70;;
57903;SDS011;43720;47.462;19.030;2022-11-21T11:16:59;6.25;;;4.15;;
57903;SDS011;43720;47.462;19.030;2022-11-21T11:20:05;5.55;;;3.35;;
57903;SDS011;43720;47.462;19.030;2022-11-21T11:23:28;9.13;;;3.90;;
57903;SDS011;43720;47.462;19.030;2022-11-21T11:26:32;8.82;;;5.60;;
57903;SDS011;43720;47.462;19.030;2022-11-21T11:29:40;6.40;;;4.50;;
57903;SDS011;43720;47.462;19.030;2022-11-21T11:32:51;8.90;;;5.93;;
57903;SDS011;43720;47.462;19.030;2022-11-21T11:35:54;8.00;;;4.90;;
57903;SDS011;43720;47.462;19.030;2022-11-21T11:39:08;8.10;;;5.10;;
57903;SDS011;43720;47.462;19.030;2022-11-21T11:53:26;4.12;;;3.10;;
57903;SDS011;43720;47.462;19.030;2022-11-21T11:56:34;4.12;;;3.72;;
57903;SDS011;43720;47.462;19.030;2022-11-21T11:59:39;3.35;;;3.08;;
57903;SDS011;43720;47.462;19.030;2022-11-21T12:02:54;9.77;;;6.00;;
57903;SDS011;43720;47.462;19.030;2022-11-21T12:06:05;6.93;;;4.57;;
57903;SDS011;43720;47.462;19.030;2022-11-21T12:09:24;7.82;;;6.10;;
57903;SDS011;43720;47.462;19.030;2022-11-21T12:12:35;13.10;;;6.60;;
57903;SDS011;43720;47.462;19.030;2022-11-21T12:15:40;7.03;;;4.07;;
57903;SDS011;43720;47.462;19.030;2022-11-21T12:19:06;19.05;;;5.82;;
57903;SDS011;43720;47.462;19.030;2022-11-21T12:22:13;16.73;;;6.97;;
57903;SDS011;43720;47.462;19.030;2022-11-21T12:25:16;7.43;;;5.35;;
57903;SDS011;43720;47.462;19.030;2022-11-21T12:28:22;8.68;;;5.03;;
57903;SDS011;43720;47.462;19.030;2022-11-21T12:31:37;18.23;;;4.80;;
57903;SDS011;43720;47.462;19.030;2022-11-21T12:38:33;4.97;;;4.22;;
57903;SDS011;43720;47.462;19.030;2022-11-21T12:41:59;5.03;;;3.90;;
57903;SDS011;43720;47.462;19.030;2022-11-21T12:45:52;8.77;;;4.40;;
57903;SDS011;43720;47.462;19.030;2022-11-21T12:52:56;7.97;;;3.47;;
57903;SDS011;43720;47.462;19.030;2022-11-21T13:06:44;5.20;;;3.08;;
57903;SDS011;43720;47.462;19.030;2022-11-21T13:09:51;2.37;;;2.17;;
57903;SDS011;43720;47.462;19.030;2022-11-21T13:13:18;5.12;;;3.50;;
57903;SDS011;43720;47.462;19.030;2022-11-21T13:16:22;4.93;;;3.80;;
57903;SDS011;43720;47.462;19.030;2022-11-21T13:19:59;4.20;;;2.67;;
57903;SDS011;43720;47.462;19.030;2022-11-21T13:23:33;2.35;;;2.22;;
57903;SDS011;43720;47.462;19.030;2022-11-21T13:26:45;4.17;;;2.17;;
57903;SDS011;43720;47.462;19.030;2022-11-21T13:36:49;2.80;;;2.28;;
57903;SDS011;43720;47.462;19.030;2022-11-21T13:39:51;2.87;;;1.73;;
57903;SDS011;43720;47.462;19.030;2022-11-21T13:43:28;3.53;;;2.90;;
57903;SDS011;43720;47.462;19.030;2022-11-21T13:50:06;3.03;;;1.17;;
57903;SDS011;43720;47.462;19.030;2022-11-21T14:06:48;2.40;;;2.00;;
57903;SDS011;43720;47.462;19.030;2022-11-21T14:09:51;2.30;;;2.00;;
57903;SDS011;43720;47.462;19.030;2022-11-21T14:12:54;1.85;;;1.35;;
57903;SDS011;43720;47.462;19.030;2022-11-21T14:19:24;2.87;;;1.73;;
57903;SDS011;43720;47.462;19.030;2022-11-21T14:22:30;2.45;;;1.85;;
57903;SDS011;43720;47.462;19.030;2022-11-21T14:29:24;2.62;;;1.92;;
57903;SDS011;43720;47.462;19.030;2022-11-21T14:32:29;4.07;;;2.22;;
57903;SDS011;43720;47.462;19.030;2022-11-21T14:35:32;2.60;;;2.00;;
57903;SDS011;43720;47.462;19.030;2022-11-21T14:38:44;3.95;;;2.33;;
57903;SDS011;43720;47.462;19.030;2022-11-21T14:42:12;2.85;;;2.08;;
57903;SDS011;43720;47.462;19.030;2022-11-21T14:45:17;2.67;;;1.23;;
57903;SDS011;43720;47.462;19.030;2022-11-21T14:48:25;1.67;;;1.58;;
57903;SDS011;43720;47.462;19.030;2022-11-21T14:51:28;5.32;;;2.33;;
57903;SDS011;43720;47.462;19.030;2022-11-21T14:54:31;2.47;;;2.15;;
57903;SDS011;43720;47.462;19.030;2022-11-21T14:58:06;1.23;;;1.12;;
57903;SDS011;43720;47.462;19.030;2022-11-21T15:01:18;2.20;;;1.95;;
57903;SDS011;43720;47.462;19.030;2022-11-21T15:04:29;3.75;;;2.28;;
57903;SDS011;43720;47.462;19.030;2022-11-21T15:07:40;2.37;;;2.17;;
57903;SDS011;43720;47.462;19.030;2022-11-21T15:10:43;3.17;;;2.37;;
57903;SDS011;43720;47.462;19.030;2022-11-21T15:13:46;2.87;;;2.30;;
57903;SDS011;43720;47.462;19.030;2022-11-21T15:17:15;2.97;;;1.95;;
57903;SDS011;43720;47.462;19.030;2022-11-21T15:20:21;2.00;;;1.90;;
57903;SDS011;43720;47.462;19.030;2022-11-21T15:23:25;11.23;;;3.05;;
57903;SDS011;43720;47.462;19.030;2022-11-21T15:26:29;3.00;;;2.62;;
57903;SDS011;43720;47.462;19.030;2022-11-21T15:29:32;1.75;;;1.65;;
57903;SDS011;43720;47.462;19.030;2022-11-21T15:33:18;1.45;;;1.00;;
57903;SDS011;43720;47.462;19.030;2022-11-21T15:36:20;3.10;;;2.80;;
57903;SDS011;43720;47.462;19.030;2022-11-21T15:39:22;3.12;;;2.20;;
57903;SDS011;43720;47.462;19.030;2022-11-21T15:42:33;1.15;;;0.98;;
57903;SDS011;43720;47.462;19.030;2022-11-21T15:45:38;2.70;;;1.80;;
57903;SDS011;43720;47.462;19.030;2022-11-21T15:48:52;3.28;;;2.03;;
57903;SDS011;43720;47.462;19.030;2022-11-21T15:51:55;2.05;;;1.65;;
57903;SDS011;43720;47.462;19.030;2022-11-21T15:55:18;3.30;;;2.00;;
57903;SDS011;43720;47.462;19.030;2022-11-21T15:58:22;6.00;;;2.60;;
57903;SDS011;43720;47.462;19.030;2022-11-21T16:01:25;3.08;;;2.20;;
57903;SDS011;43720;47.462;19.030;2022-11-21T16:04:33;1.48;;;1.37;;
57903;SDS011;43720;47.462;19.030;2022-11-21T16:07:35;8.55;;;3.60;;
57903;SDS011;43720;47.462;19.030;2022-11-21T16:10:37;2.33;;;2.12;;
57903;SDS011;43720;47.462;19.030;2022-11-21T16:13:40;2.70;;;1.87;;
57903;SDS011;43720;47.462;19.030;2022-11-21T16:16:45;2.03;;;1.83;;
57903;SDS011;43720;47.462;19.030;2022-11-21T16:19:48;1.98;;;1.33;;
57903;SDS011;43720;47.462;19.030;2022-11-21T16:22:50;6.93;;;3.90;;
57903;SDS011;43720;47.462;19.030;2022-11-21T16:25:53;3.10;;;1.85;;
57903;SDS011;43720;47.462;19.030;2022-11-21T16:28:56;3.25;;;2.60;;
57903;SDS011;43720;47.462;19.030;2022-11-21T16:31:59;1.58;;;1.27;;
57903;SDS011;43720;47.462;19.030;2022-11-21T16:35:01;2.62;;;2.35;;
57903;SDS011;43720;47.462;19.030;2022-11-21T16:38:07;2.67;;;2.22;;
